createdAt,value
2023-03-16T00:01:41.722Z,1.10
2023-03-16T00:04:49.863Z,1.19
2023-03-16T00:07:58.163Z,1.11
2023-03-16T00:11:07.690Z,1.02
2023-03-16T00:14:15.770Z,0.90
2023-03-16T00:17:23.803Z,0.94
2023-03-16T00:20:33.516Z,0.92
2023-03-16T00:23:42.530Z,0.82
2023-03-16T00:26:54.728Z,0.66
2023-03-16T00:30:03.617Z,0.63
2023-03-16T00:33:12.469Z,0.74
2023-03-16T00:36:22.680Z,0.77
2023-03-16T00:39:35.528Z,0.65
2023-03-16T00:42:44.977Z,0.50
2023-03-16T00:45:59.062Z,0.44
2023-03-16T00:49:09.410Z,0.45
2023-03-16T00:52:18.012Z,0.52
2023-03-16T00:55:27.043Z,0.59
2023-03-16T00:58:39.237Z,0.67
2023-03-16T01:01:47.815Z,0.60
2023-03-16T01:04:55.893Z,0.64
2023-03-16T01:08:04.296Z,0.65
2023-03-16T01:11:16.515Z,0.58
2023-03-16T01:14:26.909Z,0.47
2023-03-16T01:17:35.447Z,0.43
2023-03-16T01:20:50.449Z,0.42
2023-03-16T01:23:58.927Z,0.51
2023-03-16T01:27:07.828Z,0.35
2023-03-16T01:30:17.929Z,0.31
2023-03-16T01:33:29.076Z,0.37
2023-03-16T01:36:37.389Z,0.51
2023-03-16T01:39:49.439Z,0.56
2023-03-16T01:43:04.441Z,0.49
2023-03-16T01:46:23.531Z,0.56
2023-03-16T01:49:38.966Z,0.58
2023-03-16T01:52:47.070Z,0.59
2023-03-16T01:55:55.701Z,0.58
2023-03-16T01:59:12.083Z,0.72
2023-03-16T02:02:26.304Z,0.65
2023-03-16T02:05:44.020Z,0.62
2023-03-16T02:08:58.793Z,0.53
2023-03-16T02:12:18.481Z,0.55
2023-03-16T02:15:31.758Z,0.47
2023-03-16T02:18:41.541Z,0.42
2023-03-16T02:22:02.144Z,0.15
2023-03-16T02:25:13.990Z,-0.03
2023-03-16T02:28:31.963Z,-0.10
2023-03-16T02:31:41.662Z,-0.19
2023-03-16T02:34:49.938Z,-0.17
2023-03-16T02:37:58.080Z,-0.22
2023-03-16T02:41:15.445Z,-0.24
2023-03-16T02:44:29.664Z,-0.38
2023-03-16T02:47:45.694Z,-0.44
2023-03-16T02:50:55.768Z,-0.49
2023-03-16T02:54:04.938Z,-0.54
2023-03-16T02:57:15.758Z,-0.63
2023-03-16T03:00:24.954Z,-0.66
2023-03-16T03:03:35.052Z,-0.66
2023-03-16T03:06:43.227Z,-0.64
2023-03-16T03:09:53.592Z,-0.64
2023-03-16T03:13:02.308Z,-0.78
2023-03-16T03:16:11.616Z,-0.88
2023-03-16T03:19:21.285Z,-0.89
2023-03-16T03:22:29.986Z,-0.90
2023-03-16T03:25:38.104Z,-0.88
2023-03-16T03:28:47.277Z,-0.83
2023-03-16T03:31:55.436Z,-0.93
2023-03-16T03:35:06.107Z,-0.97
2023-03-16T03:38:14.240Z,-0.95
2023-03-16T03:41:26.075Z,-0.94
2023-03-16T03:44:35.609Z,-0.89
2023-03-16T03:47:45.466Z,-0.85
2023-03-16T03:51:01.161Z,-0.94
2023-03-16T03:54:38.659Z,-1.07
2023-03-16T03:57:50.881Z,-1.13
2023-03-16T04:00:59.198Z,-1.18
2023-03-16T04:04:07.431Z,-1.17
2023-03-16T04:07:17.142Z,-1.19
2023-03-16T04:10:29.373Z,-1.19
2023-03-16T04:13:37.819Z,-1.21
2023-03-16T04:16:46.459Z,-1.21
2023-03-16T04:19:55.436Z,-1.27
2023-03-16T04:23:05.333Z,-1.22
2023-03-16T04:26:16.871Z,-1.05
2023-03-16T04:29:28.141Z,-1.21
2023-03-16T04:32:40.181Z,-1.31
2023-03-16T04:35:48.478Z,-1.16
2023-03-16T04:38:59.861Z,-1.18
2023-03-16T04:42:08.553Z,-1.24
2023-03-16T04:45:18.763Z,-1.19
2023-03-16T04:48:29.276Z,-1.02
2023-03-16T04:51:40.539Z,-1.06
2023-03-16T04:54:52.637Z,-0.96
2023-03-16T04:58:01.476Z,-0.94
2023-03-16T05:01:14.623Z,-0.95
2023-03-16T05:04:24.584Z,-1.04
2023-03-16T05:07:33.287Z,-0.94
2023-03-16T05:10:44.651Z,-0.90
2023-03-16T05:13:53.347Z,-0.86
2023-03-16T05:17:03.932Z,-0.77
2023-03-16T05:20:16.481Z,-0.67
2023-03-16T05:23:30.875Z,-0.68
2023-03-16T05:26:44.622Z,-0.80
2023-03-16T05:29:56.465Z,-0.79
2023-03-16T05:33:05.976Z,-0.75
2023-03-16T05:36:15.060Z,-0.71
2023-03-16T05:39:26.478Z,-0.58
2023-03-16T05:42:36.000Z,-0.46
2023-03-16T05:45:44.521Z,-0.35
2023-03-16T05:48:55.934Z,-0.21
2023-03-16T05:52:05.183Z,-0.06
2023-03-16T05:55:18.971Z,0.11
2023-03-16T05:58:34.676Z,0.28
2023-03-16T06:01:46.924Z,0.42
2023-03-16T06:04:55.670Z,0.50
2023-03-16T06:08:05.751Z,0.61
2023-03-16T06:11:16.398Z,0.71
2023-03-16T06:14:28.271Z,0.86
2023-03-16T06:17:37.961Z,1.00
2023-03-16T06:20:47.773Z,1.12
2023-03-16T06:23:56.500Z,1.29
2023-03-16T06:27:05.231Z,1.39
2023-03-16T06:30:25.102Z,1.51
2023-03-16T06:33:33.923Z,1.56
2023-03-16T06:36:42.240Z,1.55
2023-03-16T06:39:54.321Z,1.58
2023-03-16T06:43:02.688Z,1.70
2023-03-16T06:46:12.909Z,1.73
2023-03-16T06:49:21.786Z,1.80
2023-03-16T06:52:32.064Z,1.89
2023-03-16T06:55:41.714Z,2.02
2023-03-16T06:58:52.084Z,2.03
2023-03-16T07:02:02.358Z,2.00
2023-03-16T07:05:14.131Z,2.04
2023-03-16T07:08:22.751Z,2.00
2023-03-16T07:11:32.495Z,2.01
2023-03-16T07:14:42.581Z,1.85
2023-03-16T07:17:57.661Z,1.91
2023-03-16T07:21:08.274Z,2.07
2023-03-16T07:24:17.406Z,1.99
2023-03-16T07:27:27.409Z,2.24
2023-03-16T07:30:35.577Z,2.17
2023-03-16T07:33:45.127Z,2.30
2023-03-16T07:36:59.479Z,2.55
2023-03-16T07:40:13.943Z,2.72
2023-03-16T07:43:22.580Z,3.08
2023-03-16T07:46:32.725Z,3.19
2023-03-16T07:49:42.619Z,3.32
2023-03-16T07:52:51.385Z,3.64
2023-03-16T07:55:59.979Z,3.74
2023-03-16T07:59:08.382Z,3.90
2023-03-16T08:02:21.558Z,4.18
2023-03-16T08:05:33.205Z,4.33
2023-03-16T08:08:45.206Z,3.95
2023-03-16T08:12:01.970Z,4.28
2023-03-16T08:15:11.765Z,4.26
2023-03-16T08:18:21.421Z,4.35
2023-03-16T08:21:31.279Z,4.12
2023-03-16T08:24:39.983Z,4.00
2023-03-16T08:27:51.189Z,4.31
2023-03-16T08:30:59.439Z,4.34
2023-03-16T08:34:24.571Z,4.37
2023-03-16T08:37:34.232Z,4.42
2023-03-16T08:40:47.621Z,4.52
2023-03-16T08:43:57.799Z,4.19
2023-03-16T08:47:12.213Z,4.25
2023-03-16T08:50:23.482Z,4.53
2023-03-16T08:53:33.464Z,4.55
2023-03-16T08:56:41.859Z,4.56
2023-03-16T08:59:51.113Z,4.23
2023-03-16T09:03:00.744Z,4.36
2023-03-16T09:06:17.514Z,4.62
2023-03-16T09:09:27.445Z,5.06
2023-03-16T09:12:38.477Z,5.35
2023-03-16T09:15:46.982Z,5.16
2023-03-16T09:18:55.882Z,5.27
2023-03-16T09:22:04.154Z,5.55
2023-03-16T09:25:14.443Z,5.26
2023-03-16T09:28:22.666Z,5.13
2023-03-16T09:31:31.196Z,4.67
2023-03-16T09:34:39.671Z,4.72
2023-03-16T09:38:04.742Z,4.88
2023-03-16T09:41:40.265Z,4.80
2023-03-16T09:45:06.484Z,5.63
2023-03-16T09:48:18.909Z,4.96
2023-03-16T09:51:39.529Z,4.59
2023-03-16T09:54:58.081Z,4.87
2023-03-16T09:58:17.776Z,5.48
2023-03-16T10:01:44.776Z,5.98
2023-03-16T10:05:08.206Z,5.96
2023-03-16T10:08:24.515Z,5.84
2023-03-16T10:11:38.418Z,5.74
2023-03-16T10:14:55.177Z,6.46
2023-03-16T10:18:13.476Z,6.41
2023-03-16T10:21:25.208Z,6.66
2023-03-16T10:24:49.526Z,6.82
2023-03-16T10:27:57.752Z,7.56
2023-03-16T10:31:08.112Z,7.80
2023-03-16T10:34:16.990Z,8.34
2023-03-16T10:37:28.302Z,8.00
2023-03-16T10:40:40.216Z,8.27
2023-03-16T10:43:52.520Z,8.57
2023-03-16T10:47:05.454Z,7.94
2023-03-16T10:50:16.807Z,7.58
2023-03-16T10:53:30.534Z,7.42
2023-03-16T10:56:38.623Z,7.55
2023-03-16T10:59:50.778Z,7.67
2023-03-16T11:03:02.514Z,7.33
2023-03-16T11:06:22.889Z,7.85
2023-03-16T11:09:35.535Z,8.13
2023-03-16T11:12:49.128Z,8.51
2023-03-16T11:16:02.744Z,8.27
2023-03-16T11:19:22.334Z,8.14
2023-03-16T11:22:31.745Z,7.66
2023-03-16T11:25:47.767Z,7.40
2023-03-16T11:29:08.870Z,7.14
2023-03-16T11:32:24.815Z,7.50
2023-03-16T11:35:58.393Z,7.27
2023-03-16T11:39:24.814Z,7.16
2023-03-16T11:42:40.103Z,6.96
2023-03-16T11:46:03.084Z,7.06
2023-03-16T11:49:42.859Z,7.04
2023-03-16T11:53:05.041Z,7.18
2023-03-16T11:56:29.789Z,7.08
2023-03-16T12:00:18.291Z,7.03
2023-03-16T12:04:10.244Z,7.20
2023-03-16T12:07:39.580Z,7.32
2023-03-16T12:10:56.325Z,7.34
2023-03-16T12:14:18.256Z,7.45
2023-03-16T12:17:31.415Z,7.70
2023-03-16T12:20:53.453Z,7.64
2023-03-16T12:24:07.055Z,7.56
2023-03-16T12:27:23.973Z,7.59
2023-03-16T12:30:46.084Z,7.57
2023-03-16T12:34:16.564Z,7.63
2023-03-16T12:37:38.487Z,7.49
2023-03-16T12:40:54.877Z,7.54
2023-03-16T12:44:16.073Z,7.58
2023-03-16T12:47:33.651Z,7.64
2023-03-16T12:50:51.952Z,7.76
2023-03-16T12:54:00.629Z,7.88
2023-03-16T12:57:16.329Z,7.94
2023-03-16T13:00:35.897Z,7.98
2023-03-16T13:03:48.073Z,7.99
2023-03-16T13:07:07.731Z,7.96
2023-03-16T13:10:20.698Z,8.02
2023-03-16T13:13:29.096Z,8.09
2023-03-16T13:16:39.844Z,8.03
2023-03-16T13:20:08.958Z,8.14
2023-03-16T13:23:24.438Z,8.21
2023-03-16T13:26:43.273Z,8.26
2023-03-16T13:29:57.931Z,8.27
2023-03-16T13:33:20.651Z,8.21
2023-03-16T13:36:31.875Z,8.26
2023-03-16T13:39:40.640Z,8.44
2023-03-16T13:42:52.904Z,8.37
2023-03-16T13:46:01.176Z,8.46
2023-03-16T13:49:13.300Z,8.45
2023-03-16T13:52:29.479Z,8.51
2023-03-16T13:55:40.284Z,8.47
2023-03-16T13:58:52.697Z,8.58
2023-03-16T14:02:02.864Z,8.54
2023-03-16T14:05:19.988Z,8.59
2023-03-16T14:08:29.805Z,8.70
2023-03-16T14:11:38.678Z,8.76
2023-03-16T14:14:51.032Z,8.73
2023-03-16T14:18:14.647Z,8.69
2023-03-16T14:21:30.794Z,8.67
2023-03-16T14:24:40.583Z,8.62
2023-03-16T14:27:49.343Z,8.62
2023-03-16T14:31:07.649Z,8.61
2023-03-16T14:34:29.891Z,8.63
2023-03-16T14:37:41.132Z,8.69
2023-03-16T14:40:56.192Z,8.72
2023-03-16T14:44:04.904Z,8.82
2023-03-16T14:47:27.973Z,8.88
2023-03-16T14:50:37.173Z,8.85
2023-03-16T14:53:46.636Z,8.77
2023-03-16T14:57:00.661Z,8.76
2023-03-16T15:00:12.605Z,8.83
2023-03-16T15:03:24.630Z,8.74
2023-03-16T15:06:34.320Z,8.69
2023-03-16T15:09:44.385Z,8.79
2023-03-16T15:12:54.860Z,8.77
2023-03-16T15:16:04.511Z,8.89
2023-03-16T15:19:12.665Z,8.83
2023-03-16T15:22:28.480Z,8.80
2023-03-16T15:25:41.301Z,8.77
2023-03-16T15:28:49.490Z,8.82
2023-03-16T15:31:57.708Z,8.80
2023-03-16T15:35:06.875Z,8.70
2023-03-16T15:38:19.128Z,8.62
2023-03-16T15:41:35.251Z,8.48
2023-03-16T15:44:58.191Z,8.49
2023-03-16T15:48:07.280Z,8.55
2023-03-16T15:51:24.426Z,8.43
2023-03-16T15:54:35.059Z,8.43
2023-03-16T15:57:45.147Z,8.50
2023-03-16T16:00:57.104Z,8.35
2023-03-16T16:04:15.427Z,8.32
2023-03-16T16:07:23.669Z,8.26
2023-03-16T16:10:32.263Z,8.29
2023-03-16T16:13:45.026Z,8.19
2023-03-16T16:16:54.869Z,8.13
2023-03-16T16:20:03.247Z,8.04
2023-03-16T16:23:11.383Z,8.00
2023-03-16T16:26:46.938Z,7.94
2023-03-16T16:29:57.943Z,7.88
2023-03-16T16:33:26.622Z,7.87
2023-03-16T16:36:35.489Z,7.71
2023-03-16T16:39:44.142Z,7.60
2023-03-16T16:42:54.936Z,7.63
2023-03-16T16:46:14.006Z,7.48
2023-03-16T16:49:28.582Z,7.37
2023-03-16T16:52:37.283Z,7.26
2023-03-16T16:55:46.018Z,7.21
2023-03-16T16:58:54.443Z,7.13
2023-03-16T17:02:24.425Z,6.94
2023-03-16T17:05:32.927Z,6.80
2023-03-16T17:08:41.542Z,6.63
2023-03-16T17:11:50.929Z,6.51
2023-03-16T17:14:59.265Z,6.37
2023-03-16T17:18:15.022Z,6.18
2023-03-16T17:21:26.175Z,6.05
2023-03-16T17:24:34.603Z,6.12
2023-03-16T17:27:46.812Z,5.93
2023-03-16T17:30:55.927Z,5.82
2023-03-16T17:34:19.140Z,5.60
2023-03-16T17:37:28.753Z,5.44
2023-03-16T17:40:37.538Z,5.54
2023-03-16T17:43:47.903Z,5.51
2023-03-16T17:46:56.514Z,5.41
2023-03-16T17:50:17.945Z,5.12
2023-03-16T17:53:26.518Z,5.01
2023-03-16T17:56:37.151Z,4.84
2023-03-16T17:59:47.346Z,4.76
2023-03-16T18:03:00.862Z,4.75
2023-03-16T18:06:18.092Z,4.79
2023-03-16T18:09:28.666Z,4.61
2023-03-16T18:12:37.166Z,4.47
2023-03-16T18:15:47.732Z,4.35
2023-03-16T18:19:01.040Z,4.29
2023-03-16T18:22:19.425Z,4.28
2023-03-16T18:25:39.536Z,4.06
2023-03-16T18:28:48.422Z,3.95
2023-03-16T18:31:59.367Z,3.84
2023-03-16T18:35:16.821Z,3.78
2023-03-16T18:38:31.475Z,3.67
2023-03-16T18:41:39.748Z,3.59
2023-03-16T18:44:48.810Z,3.55
2023-03-16T18:47:58.011Z,3.51
2023-03-16T18:51:06.815Z,3.50
2023-03-16T18:54:23.452Z,3.35
2023-03-16T18:57:33.288Z,3.43
2023-03-16T19:00:42.098Z,3.41
2023-03-16T19:03:51.884Z,3.37
2023-03-16T19:07:00.392Z,3.36
2023-03-16T19:10:24.238Z,3.32
2023-03-16T19:13:32.646Z,3.26
2023-03-16T19:16:40.971Z,3.20
2023-03-16T19:19:49.331Z,3.26
2023-03-16T19:23:04.657Z,3.19
2023-03-16T19:26:15.257Z,3.09
2023-03-16T19:29:30.376Z,3.11
2023-03-16T19:32:38.711Z,3.10
2023-03-16T19:35:51.903Z,3.09
2023-03-16T19:39:01.374Z,3.24
2023-03-16T19:42:22.329Z,3.18
2023-03-16T19:45:34.321Z,3.17
2023-03-16T19:48:43.476Z,3.12
2023-03-16T19:51:54.696Z,3.06
2023-03-16T19:55:03.297Z,3.06
2023-03-16T19:58:29.370Z,3.11
2023-03-16T20:01:37.890Z,3.03
2023-03-16T20:04:46.522Z,2.88
2023-03-16T20:07:55.864Z,2.96
2023-03-16T20:11:08.690Z,3.07
2023-03-16T20:14:24.644Z,3.05
2023-03-16T20:17:32.940Z,2.81
2023-03-16T20:20:41.988Z,2.60
2023-03-16T20:23:50.314Z,2.49
2023-03-16T20:26:58.505Z,2.37
2023-03-16T20:30:17.679Z,2.48
2023-03-16T20:33:28.871Z,2.34
2023-03-16T20:36:37.137Z,2.40
2023-03-16T20:39:45.470Z,2.60
2023-03-16T20:42:54.688Z,2.69
2023-03-16T20:46:04.779Z,2.74
2023-03-16T20:49:34.191Z,2.90
2023-03-16T20:52:42.443Z,2.88
2023-03-16T20:55:53.173Z,2.90
2023-03-16T20:59:01.629Z,2.90
2023-03-16T21:02:28.159Z,2.88
2023-03-16T21:05:36.563Z,2.79
2023-03-16T21:08:44.918Z,2.67
2023-03-16T21:11:53.284Z,2.60
2023-03-16T21:15:03.701Z,2.54
2023-03-16T21:18:19.816Z,2.48
2023-03-16T21:21:28.050Z,2.49
2023-03-16T21:24:37.088Z,2.55
2023-03-16T21:27:45.422Z,2.43
2023-03-16T21:30:58.058Z,2.43
2023-03-16T21:34:19.673Z,2.38
2023-03-16T21:37:28.288Z,2.37
2023-03-16T21:40:36.509Z,2.30
2023-03-16T21:43:46.677Z,2.22
2023-03-16T21:46:54.984Z,2.20
2023-03-16T21:50:14.062Z,2.11
2023-03-16T21:53:25.682Z,2.06
2023-03-16T21:56:34.032Z,2.05
2023-03-16T21:59:42.269Z,2.14
2023-03-16T22:02:53.731Z,1.99
2023-03-16T22:06:03.436Z,1.96
2023-03-16T22:09:30.213Z,2.08
2023-03-16T22:12:38.601Z,1.96
2023-03-16T22:15:49.408Z,1.98
2023-03-16T22:18:58.979Z,1.92
2023-03-16T22:22:16.000Z,2.04
2023-03-16T22:25:26.625Z,1.98
2023-03-16T22:28:35.916Z,1.92
2023-03-16T22:31:44.045Z,1.96
2023-03-16T22:34:56.886Z,1.89
2023-03-16T22:38:12.327Z,1.87
2023-03-16T22:41:20.685Z,1.83
2023-03-16T22:44:28.997Z,1.88
2023-03-16T22:47:38.653Z,1.78
2023-03-16T22:50:48.196Z,1.71
2023-03-16T22:54:02.395Z,1.66
2023-03-16T22:57:15.270Z,1.60
2023-03-16T23:00:28.624Z,1.61
2023-03-16T23:03:37.754Z,1.56
2023-03-16T23:06:53.367Z,1.58
2023-03-16T23:10:02.876Z,1.52
2023-03-16T23:13:17.890Z,1.38
2023-03-16T23:16:29.200Z,1.21
2023-03-16T23:19:37.468Z,1.33
2023-03-16T23:22:45.618Z,1.18
2023-03-16T23:25:55.180Z,1.07
2023-03-16T23:29:03.297Z,1.16
2023-03-16T23:32:12.786Z,1.01
2023-03-16T23:35:25.432Z,1.04
2023-03-16T23:38:33.899Z,1.10
2023-03-16T23:41:48.009Z,0.96
2023-03-16T23:45:08.364Z,0.86
2023-03-16T23:48:20.416Z,1.03
2023-03-16T23:51:31.448Z,0.80
2023-03-16T23:54:39.646Z,0.74
2023-03-16T23:57:49.574Z,0.74
